sensor_id;sensor_type;location;lat;lon;timestamp;pressure;altitude;pressure_sealevel;temperature;humidity
14232;BME280;7200;52.194;9.900;2023-07-31T00:00:52;99632.69;;;19.17;100.00
14232;BME280;7200;52.194;9.900;2023-07-31T00:03:17;99624.94;;;19.35;100.00
14232;BME280;7200;52.194;9.900;2023-07-31T00:05:42;99622.38;;;19.34;100.00
14232;BME280;7200;52.194;9.900;2023-07-31T00:08:07;99619.78;;;19.22;100.00
14232;BME280;7200;52.194;9.900;2023-07-31T00:10:33;99622.91;;;19.28;100.00
14232;BME280;7200;52.194;9.900;2023-07-31T00:12:58;99619.53;;;19.04;100.00
14232;BME280;7200;52.194;9.900;2023-07-31T00:15:24;99617.44;;;19.29;100.00
14232;BME280;7200;52.194;9.900;2023-07-31T00:17:49;99618.31;;;19.39;100.00
14232;BME280;7200;52.194;9.900;2023-07-31T00:20:14;99613.53;;;18.91;100.00
14232;BME280;7200;52.194;9.900;2023-07-31T00:22:40;99612.78;;;18.89;100.00
14232;BME280;7200;52.194;9.900;2023-07-31T00:25:05;99617.22;;;19.00;100.00
14232;BME280;7200;52.194;9.900;2023-07-31T00:27:31;99611.63;;;19.03;100.00
14232;BME280;7200;52.194;9.900;2023-07-31T00:29:57;99607.19;;;18.92;100.00
14232;BME280;7200;52.194;9.900;2023-07-31T00:32:22;99607.25;;;18.81;100.00
14232;BME280;7200;52.194;9.900;2023-07-31T00:34:47;99604.59;;;18.70;100.00
14232;BME280;7200;52.194;9.900;2023-07-31T00:37:13;99601.28;;;18.77;100.00
14232;BME280;7200;52.194;9.900;2023-07-31T00:39:38;99596.50;;;18.92;100.00
14232;BME280;7200;52.194;9.900;2023-07-31T00:42:04;99597.22;;;18.94;100.00
14232;BME280;7200;52.194;9.900;2023-07-31T00:44:29;99603.94;;;19.10;100.00
14232;BME280;7200;52.194;9.900;2023-07-31T00:46:55;99591.56;;;18.88;100.00
14232;BME280;7200;52.194;9.900;2023-07-31T00:49:22;99586.75;;;19.02;100.00
14232;BME280;7200;52.194;9.900;2023-07-31T00:51:47;99596.06;;;19.08;100.00
14232;BME280;7200;52.194;9.900;2023-07-31T00:54:13;99592.88;;;18.93;100.00
14232;BME280;7200;52.194;9.900;2023-07-31T00:56:38;99592.34;;;18.99;100.00
14232;BME280;7200;52.194;9.900;2023-07-31T00:59:05;99588.34;;;19.15;100.00
14232;BME280;7200;52.194;9.900;2023-07-31T01:01:30;99587.81;;;19.21;100.00
14232;BME280;7200;52.194;9.900;2023-07-31T01:03:56;99582.28;;;19.13;100.00
14232;BME280;7200;52.194;9.900;2023-07-31T01:11:30;99583.13;;;18.92;100.00
14232;BME280;7200;52.194;9.900;2023-07-31T01:13:57;99580.09;;;18.97;100.00
14232;BME280;7200;52.194;9.900;2023-07-31T01:16:22;99573.81;;;18.86;100.00
14232;BME280;7200;52.194;9.900;2023-07-31T01:18:48;99569.56;;;18.63;100.00
14232;BME280;7200;52.194;9.900;2023-07-31T01:27:10;99563.94;;;18.34;100.00
14232;BME280;7200;52.194;9.900;2023-07-31T01:29:44;99559.00;;;18.29;100.00
14232;BME280;7200;52.194;9.900;2023-07-31T01:32:11;99562.13;;;18.34;100.00
14232;BME280;7200;52.194;9.900;2023-07-31T01:34:41;99557.28;;;18.28;100.00
14232;BME280;7200;52.194;9.900;2023-07-31T01:37:06;99559.72;;;18.31;100.00
14232;BME280;7200;52.194;9.900;2023-07-31T01:39:32;99562.88;;;18.25;100.00
14232;BME280;7200;52.194;9.900;2023-07-31T01:41:57;99550.97;;;17.51;100.00
14232;BME280;7200;52.194;9.900;2023-07-31T01:44:22;99542.50;;;17.24;100.00
14232;BME280;7200;52.194;9.900;2023-07-31T01:46:48;99555.44;;;17.96;100.00
14232;BME280;7200;52.194;9.900;2023-07-31T01:49:13;99561.47;;;18.09;100.00
14232;BME280;7200;52.194;9.900;2023-07-31T01:51:38;99558.88;;;18.19;100.00
14232;BME280;7200;52.194;9.900;2023-07-31T01:54:03;99552.63;;;18.09;100.00
14232;BME280;7200;52.194;9.900;2023-07-31T01:56:29;99550.94;;;17.97;100.00
14232;BME280;7200;52.194;9.900;2023-07-31T01:58:54;99540.97;;;17.99;100.00
14232;BME280;7200;52.194;9.900;2023-07-31T02:01:19;99534.81;;;17.76;100.00
14232;BME280;7200;52.194;9.900;2023-07-31T02:03:45;99541.75;;;17.78;100.00
14232;BME280;7200;52.194;9.900;2023-07-31T02:06:10;99537.59;;;17.74;100.00
14232;BME280;7200;52.194;9.900;2023-07-31T02:08:35;99540.16;;;17.87;100.00
14232;BME280;7200;52.194;9.900;2023-07-31T02:11:01;99549.88;;;17.88;100.00
14232;BME280;7200;52.194;9.900;2023-07-31T02:13:26;99551.94;;;17.84;100.00
14232;BME280;7200;52.194;9.900;2023-07-31T02:15:51;99547.81;;;17.80;100.00
14232;BME280;7200;52.194;9.900;2023-07-31T02:18:17;99546.63;;;17.84;100.00
14232;BME280;7200;52.194;9.900;2023-07-31T02:20:42;99545.63;;;17.85;100.00
14232;BME280;7200;52.194;9.900;2023-07-31T02:23:07;99540.97;;;17.99;100.00
14232;BME280;7200;52.194;9.900;2023-07-31T02:25:32;99547.63;;;18.04;100.00
14232;BME280;7200;52.194;9.900;2023-07-31T02:27:58;99538.91;;;18.02;100.00
14232;BME280;7200;52.194;9.900;2023-07-31T02:30:23;99528.88;;;17.95;100.00
14232;BME280;7200;52.194;9.900;2023-07-31T02:32:48;99519.94;;;17.50;100.00
14232;BME280;7200;52.194;9.900;2023-07-31T02:35:14;99536.84;;;18.06;100.00
14232;BME280;7200;52.194;9.900;2023-07-31T02:37:41;99537.31;;;18.11;100.00
14232;BME280;7200;52.194;9.900;2023-07-31T02:40:07;99536.59;;;18.09;100.00
14232;BME280;7200;52.194;9.900;2023-07-31T02:42:32;99533.78;;;18.22;100.00
14232;BME280;7200;52.194;9.900;2023-07-31T02:44:57;99533.22;;;18.39;100.00
14232;BME280;7200;52.194;9.900;2023-07-31T02:47:22;99539.66;;;18.37;100.00
14232;BME280;7200;52.194;9.900;2023-07-31T02:49:48;99530.75;;;18.47;100.00
14232;BME280;7200;52.194;9.900;2023-07-31T02:52:13;99528.00;;;18.38;100.00
14232;BME280;7200;52.194;9.900;2023-07-31T02:54:38;99521.09;;;18.35;100.00
14232;BME280;7200;52.194;9.900;2023-07-31T02:57:04;99532.56;;;18.47;100.00
14232;BME280;7200;52.194;9.900;2023-07-31T02:59:30;99524.84;;;18.33;100.00
14232;BME280;7200;52.194;9.900;2023-07-31T03:01:55;99521.03;;;18.25;100.00
14232;BME280;7200;52.194;9.900;2023-07-31T03:04:20;99524.91;;;18.21;100.00
14232;BME280;7200;52.194;9.900;2023-07-31T03:06:46;99532.22;;;18.08;100.00
14232;BME280;7200;52.194;9.900;2023-07-31T03:09:11;99526.69;;;18.00;100.00
14232;BME280;7200;52.194;9.900;2023-07-31T03:11:36;99520.50;;;17.99;100.00
14232;BME280;7200;52.194;9.900;2023-07-31T03:14:02;99524.03;;;17.77;100.00
14232;BME280;7200;52.194;9.900;2023-07-31T03:16:27;99536.59;;;18.09;100.00
14232;BME280;7200;52.194;9.900;2023-07-31T03:18:53;99537.53;;;18.19;100.00
14232;BME280;7200;52.194;9.900;2023-07-31T03:21:18;99525.72;;;18.01;100.00
14232;BME280;7200;52.194;9.900;2023-07-31T03:23:44;99534.19;;;18.06;100.00
14232;BME280;7200;52.194;9.900;2023-07-31T03:26:09;99540.53;;;17.94;100.00
14232;BME280;7200;52.194;9.900;2023-07-31T03:28:34;99548.16;;;17.98;100.00
14232;BME280;7200;52.194;9.900;2023-07-31T03:31:00;99543.19;;;18.05;100.00
14232;BME280;7200;52.194;9.900;2023-07-31T03:33:25;99556.19;;;17.87;100.00
14232;BME280;7200;52.194;9.900;2023-07-31T03:35:51;99553.53;;;17.53;100.00
14232;BME280;7200;52.194;9.900;2023-07-31T03:38:16;99548.16;;;17.76;100.00
14232;BME280;7200;52.194;9.900;2023-07-31T03:40:42;99560.91;;;17.72;100.00
14232;BME280;7200;52.194;9.900;2023-07-31T03:43:07;99551.44;;;17.79;100.00
14232;BME280;7200;52.194;9.900;2023-07-31T03:45:32;99564.19;;;17.87;100.00
14232;BME280;7200;52.194;9.900;2023-07-31T03:47:58;99564.06;;;17.88;100.00
14232;BME280;7200;52.194;9.900;2023-07-31T03:50:23;99561.63;;;17.85;100.00
14232;BME280;7200;52.194;9.900;2023-07-31T03:52:50;99569.28;;;17.79;100.00
14232;BME280;7200;52.194;9.900;2023-07-31T03:55:15;99561.03;;;17.59;100.00
14232;BME280;7200;52.194;9.900;2023-07-31T03:57:40;99574.50;;;17.58;100.00
14232;BME280;7200;52.194;9.900;2023-07-31T04:00:06;99574.00;;;17.52;100.00
14232;BME280;7200;52.194;9.900;2023-07-31T04:02:32;99552.88;;;16.93;100.00
14232;BME280;7200;52.194;9.900;2023-07-31T04:04:57;99567.41;;;17.00;100.00
14232;BME280;7200;52.194;9.900;2023-07-31T04:07:22;99600.22;;;17.01;100.00
14232;BME280;7200;52.194;9.900;2023-07-31T04:09:48;99608.78;;;17.40;100.00
14232;BME280;7200;52.194;9.900;2023-07-31T04:12:13;99647.97;;;17.50;100.00
14232;BME280;7200;52.194;9.900;2023-07-31T04:14:38;99659.84;;;17.58;100.00
14232;BME280;7200;52.194;9.900;2023-07-31T04:17:03;99653.81;;;17.67;100.00
14232;BME280;7200;52.194;9.900;2023-07-31T04:19:29;99651.47;;;17.51;100.00
14232;BME280;7200;52.194;9.900;2023-07-31T04:21:54;99650.53;;;17.63;100.00
14232;BME280;7200;52.194;9.900;2023-07-31T04:24:19;99655.91;;;17.86;100.00
14232;BME280;7200;52.194;9.900;2023-07-31T04:26:52;99637.66;;;17.68;100.00
14232;BME280;7200;52.194;9.900;2023-07-31T04:29:17;99643.72;;;17.70;100.00
14232;BME280;7200;52.194;9.900;2023-07-31T04:31:43;99647.56;;;17.44;100.00
14232;BME280;7200;52.194;9.900;2023-07-31T04:34:08;99640.28;;;17.35;100.00
14232;BME280;7200;52.194;9.900;2023-07-31T04:36:34;99652.28;;;17.40;100.00
14232;BME280;7200;52.194;9.900;2023-07-31T04:39:00;99645.41;;;17.49;100.00
14232;BME280;7200;52.194;9.900;2023-07-31T04:41:25;99659.97;;;17.67;100.00
14232;BME280;7200;52.194;9.900;2023-07-31T04:43:50;99661.44;;;17.83;100.00
14232;BME280;7200;52.194;9.900;2023-07-31T04:46:16;99658.03;;;17.81;100.00
14232;BME280;7200;52.194;9.900;2023-07-31T04:48:41;99662.78;;;17.77;100.00
14232;BME280;7200;52.194;9.900;2023-07-31T04:51:07;99662.06;;;17.86;100.00
14232;BME280;7200;52.194;9.900;2023-07-31T04:53:32;99658.78;;;17.94;100.00
14232;BME280;7200;52.194;9.900;2023-07-31T04:55:57;99635.72;;;17.70;100.00
14232;BME280;7200;52.194;9.900;2023-07-31T04:58:23;99641.34;;;17.90;100.00
14232;BME280;7200;52.194;9.900;2023-07-31T05:00:48;99646.06;;;18.09;100.00
14232;BME280;7200;52.194;9.900;2023-07-31T05:03:13;99627.47;;;17.74;100.00
14232;BME280;7200;52.194;9.900;2023-07-31T05:05:38;99630.16;;;17.74;100.00
14232;BME280;7200;52.194;9.900;2023-07-31T05:08:04;99643.38;;;17.64;100.00
14232;BME280;7200;52.194;9.900;2023-07-31T05:10:29;99641.53;;;17.53;100.00
14232;BME280;7200;52.194;9.900;2023-07-31T05:12:54;99649.28;;;17.45;100.00
14232;BME280;7200;52.194;9.900;2023-07-31T05:15:20;99655.13;;;17.61;100.00
14232;BME280;7200;52.194;9.900;2023-07-31T05:17:45;99654.88;;;17.76;100.00
14232;BME280;7200;52.194;9.900;2023-07-31T05:20:10;99655.91;;;17.86;100.00
14232;BME280;7200;52.194;9.900;2023-07-31T05:22:36;99649.19;;;17.80;100.00
14232;BME280;7200;52.194;9.900;2023-07-31T05:25:01;99646.75;;;17.77;100.00
14232;BME280;7200;52.194;9.900;2023-07-31T05:27:26;99652.22;;;17.76;100.00
14232;BME280;7200;52.194;9.900;2023-07-31T05:29:51;99647.88;;;17.75;100.00
14232;BME280;7200;52.194;9.900;2023-07-31T05:32:17;99655.25;;;17.71;100.00
14232;BME280;7200;52.194;9.900;2023-07-31T05:34:42;99653.31;;;17.62;100.00
14232;BME280;7200;52.194;9.900;2023-07-31T05:37:10;99662.28;;;17.72;100.00
14232;BME280;7200;52.194;9.900;2023-07-31T05:39:35;99672.50;;;17.78;100.00
14232;BME280;7200;52.194;9.900;2023-07-31T05:42:00;99673.72;;;17.97;100.00
14232;BME280;7200;52.194;9.900;2023-07-31T05:44:26;99678.94;;;17.98;100.00
14232;BME280;7200;52.194;9.900;2023-07-31T05:46:51;99676.84;;;18.13;100.00
14232;BME280;7200;52.194;9.900;2023-07-31T05:49:16;99665.59;;;17.98;100.00
14232;BME280;7200;52.194;9.900;2023-07-31T05:51:41;99664.63;;;17.99;100.00
14232;BME280;7200;52.194;9.900;2023-07-31T05:54:07;99674.19;;;18.24;100.00
14232;BME280;7200;52.194;9.900;2023-07-31T05:56:32;99669.97;;;18.11;100.00
14232;BME280;7200;52.194;9.900;2023-07-31T05:58:59;99674.19;;;18.13;100.00
14232;BME280;7200;52.194;9.900;2023-07-31T06:01:24;99672.13;;;18.17;100.00
14232;BME280;7200;52.194;9.900;2023-07-31T06:03:49;99664.72;;;18.20;100.00
14232;BME280;7200;52.194;9.900;2023-07-31T06:06:15;99661.09;;;17.99;100.00
14232;BME280;7200;52.194;9.900;2023-07-31T06:08:40;99664.03;;;17.84;100.00
14232;BME280;7200;52.194;9.900;2023-07-31T06:11:05;99659.16;;;17.78;100.00
14232;BME280;7200;52.194;9.900;2023-07-31T06:13:31;99674.81;;;17.94;100.00
14232;BME280;7200;52.194;9.900;2023-07-31T06:15:56;99673.59;;;17.98;100.00
14232;BME280;7200;52.194;9.900;2023-07-31T06:18:21;99673.97;;;18.05;100.00
14232;BME280;7200;52.194;9.900;2023-07-31T06:20:46;99671.91;;;18.08;100.00
14232;BME280;7200;52.194;9.900;2023-07-31T06:23:12;99675.19;;;18.12;100.00
14232;BME280;7200;52.194;9.900;2023-07-31T06:25:38;99668.13;;;18.00;100.00
14232;BME280;7200;52.194;9.900;2023-07-31T06:28:03;99666.31;;;18.12;100.00
14232;BME280;7200;52.194;9.900;2023-07-31T06:30:28;99678.16;;;18.30;100.00
14232;BME280;7200;52.194;9.900;2023-07-31T06:32:53;99663.28;;;18.16;100.00
14232;BME280;7200;52.194;9.900;2023-07-31T06:35:19;99665.22;;;18.03;100.00
14232;BME280;7200;52.194;9.900;2023-07-31T06:37:44;99657.09;;;17.93;100.00
14232;BME280;7200;52.194;9.900;2023-07-31T06:40:10;99668.75;;;17.92;100.00
14232;BME280;7200;52.194;9.900;2023-07-31T06:42:35;99670.56;;;18.14;100.00
14232;BME280;7200;52.194;9.900;2023-07-31T06:45:01;99683.19;;;18.12;100.00
14232;BME280;7200;52.194;9.900;2023-07-31T06:47:27;99677.34;;;18.29;100.00
14232;BME280;7200;52.194;9.900;2023-07-31T06:49:52;99664.38;;;18.02;100.00
14232;BME280;7200;52.194;9.900;2023-07-31T06:52:17;99673.81;;;18.29;100.00
14232;BME280;7200;52.194;9.900;2023-07-31T06:54:43;99659.47;;;18.30;100.00
14232;BME280;7200;52.194;9.900;2023-07-31T06:57:08;99652.47;;;18.18;100.00
14232;BME280;7200;52.194;9.900;2023-07-31T06:59:33;99655.19;;;18.50;100.00
14232;BME280;7200;52.194;9.900;2023-07-31T07:01:58;99647.81;;;18.42;100.00
14232;BME280;7200;52.194;9.900;2023-07-31T07:04:24;99643.28;;;18.54;100.00
14232;BME280;7200;52.194;9.900;2023-07-31T07:06:49;99627.44;;;18.30;100.00
14232;BME280;7200;52.194;9.900;2023-07-31T07:09:14;99623.56;;;18.23;100.00
14232;BME280;7200;52.194;9.900;2023-07-31T07:11:39;99615.81;;;18.20;100.00
14232;BME280;7200;52.194;9.900;2023-07-31T07:14:05;99619.66;;;18.27;100.00
14232;BME280;7200;52.194;9.900;2023-07-31T07:16:30;99609.69;;;18.40;100.00
14232;BME280;7200;52.194;9.900;2023-07-31T07:18:55;99605.31;;;18.39;100.00
14232;BME280;7200;52.194;9.900;2023-07-31T07:21:21;99598.66;;;18.34;100.00
14232;BME280;7200;52.194;9.900;2023-07-31T07:23:46;99595.84;;;18.46;100.00
14232;BME280;7200;52.194;9.900;2023-07-31T07:26:11;99598.47;;;18.58;100.00
14232;BME280;7200;52.194;9.900;2023-07-31T07:28:36;99597.66;;;18.46;100.00
14232;BME280;7200;52.194;9.900;2023-07-31T07:31:02;99593.63;;;18.52;100.00
14232;BME280;7200;52.194;9.900;2023-07-31T07:33:28;99592.47;;;18.65;100.00
14232;BME280;7200;52.194;9.900;2023-07-31T07:35:53;99575.59;;;18.33;100.00
14232;BME280;7200;52.194;9.900;2023-07-31T07:38:19;99568.09;;;18.59;100.00
14232;BME280;7200;52.194;9.900;2023-07-31T07:40:44;99563.56;;;18.38;100.00
14232;BME280;7200;52.194;9.900;2023-07-31T07:43:11;99574.16;;;18.61;100.00
14232;BME280;7200;52.194;9.900;2023-07-31T07:45:37;99571.28;;;18.74;100.00
14232;BME280;7200;52.194;9.900;2023-07-31T07:48:02;99575.34;;;18.68;100.00
14232;BME280;7200;52.194;9.900;2023-07-31T07:50:28;99559.19;;;17.82;100.00
14232;BME280;7200;52.194;9.900;2023-07-31T07:52:53;99591.56;;;18.44;100.00
14232;BME280;7200;52.194;9.900;2023-07-31T07:55:18;99578.38;;;18.42;100.00
14232;BME280;7200;52.194;9.900;2023-07-31T07:57:43;99574.88;;;18.31;100.00
14232;BME280;7200;52.194;9.900;2023-07-31T08:00:10;99558.00;;;17.52;100.00
14232;BME280;7200;52.194;9.900;2023-07-31T08:02:36;99569.91;;;17.60;100.00
14232;BME280;7200;52.194;9.900;2023-07-31T08:05:01;99587.47;;;17.96;100.00
14232;BME280;7200;52.194;9.900;2023-07-31T08:07:26;99597.97;;;18.20;100.00
14232;BME280;7200;52.194;9.900;2023-07-31T08:09:52;99600.00;;;18.28;100.00
14232;BME280;7200;52.194;9.900;2023-07-31T08:12:17;99600.00;;;18.28;100.00
14232;BME280;7200;52.194;9.900;2023-07-31T08:14:42;99589.69;;;18.35;100.00
14232;BME280;7200;52.194;9.900;2023-07-31T08:17:08;99599.69;;;18.54;100.00
14232;BME280;7200;52.194;9.900;2023-07-31T08:19:34;99598.47;;;18.58;100.00
14232;BME280;7200;52.194;9.900;2023-07-31T08:21:59;99582.91;;;18.63;100.00
14232;BME280;7200;52.194;9.900;2023-07-31T08:24:24;99593.47;;;18.53;100.00
14232;BME280;7200;52.194;9.900;2023-07-31T08:26:50;99586.50;;;18.73;100.00
14232;BME280;7200;52.194;9.900;2023-07-31T08:29:15;99581.00;;;18.86;100.00
14232;BME280;7200;52.194;9.900;2023-07-31T08:31:40;99562.63;;;18.60;100.00
14232;BME280;7200;52.194;9.900;2023-07-31T08:34:05;99565.69;;;18.56;100.00
14232;BME280;7200;52.194;9.900;2023-07-31T08:36:31;99585.06;;;18.69;100.00
14232;BME280;7200;52.194;9.900;2023-07-31T08:38:56;99583.56;;;18.76;100.00
14232;BME280;7200;52.194;9.900;2023-07-31T08:41:21;99562.91;;;18.57;100.00
14232;BME280;7200;52.194;9.900;2023-07-31T08:43:47;99562.53;;;18.51;100.00
14232;BME280;7200;52.194;9.900;2023-07-31T08:46:12;99555.38;;;18.72;100.00
14232;BME280;7200;52.194;9.900;2023-07-31T08:48:41;99566.00;;;18.62;100.00
14232;BME280;7200;52.194;9.900;2023-07-31T08:51:07;99566.19;;;18.49;100.00
14232;BME280;7200;52.194;9.900;2023-07-31T08:53:32;99556.25;;;18.08;100.00
14232;BME280;7200;52.194;9.900;2023-07-31T08:55:58;99573.81;;;18.22;100.00
14232;BME280;7200;52.194;9.900;2023-07-31T08:58:24;99572.00;;;18.22;100.00
14232;BME280;7200;52.194;9.900;2023-07-31T09:00:50;99581.28;;;18.39;100.00
14232;BME280;7200;52.194;9.900;2023-07-31T09:03:18;99585.56;;;18.31;100.00
14232;BME280;7200;52.194;9.900;2023-07-31T09:05:45;99582.31;;;18.16;100.00
14232;BME280;7200;52.194;9.900;2023-07-31T09:08:12;99581.25;;;18.18;100.00
14232;BME280;7200;52.194;9.900;2023-07-31T09:10:42;99597.91;;;18.43;100.00
14232;BME280;7200;52.194;9.900;2023-07-31T09:13:08;99601.84;;;18.60;100.00
14232;BME280;7200;52.194;9.900;2023-07-31T09:15:34;99602.44;;;18.63;100.00
14232;BME280;7200;52.194;9.900;2023-07-31T09:18:01;99610.53;;;18.84;100.00
14232;BME280;7200;52.194;9.900;2023-07-31T09:20:27;99600.97;;;18.71;100.00
14232;BME280;7200;52.194;9.900;2023-07-31T09:22:52;99596.66;;;18.79;100.00
14232;BME280;7200;52.194;9.900;2023-07-31T09:25:20;99600.81;;;19.04;100.00
14232;BME280;7200;52.194;9.900;2023-07-31T09:30:12;99592.94;;;18.82;100.00
14232;BME280;7200;52.194;9.900;2023-07-31T09:32:37;99600.88;;;19.14;100.00
14232;BME280;7200;52.194;9.900;2023-07-31T09:35:22;99589.25;;;19.04;100.00
14232;BME280;7200;52.194;9.900;2023-07-31T09:37:52;99592.38;;;19.30;100.00
14232;BME280;7200;52.194;9.900;2023-07-31T09:40:28;99596.28;;;19.26;100.00
14232;BME280;7200;52.194;9.900;2023-07-31T09:42:58;99587.03;;;19.30;100.00
14232;BME280;7200;52.194;9.900;2023-07-31T09:45:24;99582.34;;;19.53;100.00
14232;BME280;7200;52.194;9.900;2023-07-31T09:47:51;99581.63;;;19.72;100.00
14232;BME280;7200;52.194;9.900;2023-07-31T09:50:17;99566.28;;;19.74;100.00
14232;BME280;7200;52.194;9.900;2023-07-31T09:52:43;99564.63;;;19.62;100.00
14232;BME280;7200;52.194;9.900;2023-07-31T09:55:09;99552.03;;;19.43;100.00
14232;BME280;7200;52.194;9.900;2023-07-31T09:57:47;99540.53;;;19.52;100.00
14232;BME280;7200;52.194;9.900;2023-07-31T10:00:14;99524.88;;;19.17;100.00
14232;BME280;7200;52.194;9.900;2023-07-31T10:02:40;99526.59;;;19.18;100.00
14232;BME280;7200;52.194;9.900;2023-07-31T10:05:07;99540.81;;;19.59;100.00
14232;BME280;7200;52.194;9.900;2023-07-31T10:07:45;99532.41;;;19.63;100.00
14232;BME280;7200;52.194;9.900;2023-07-31T10:10:15;99520.47;;;19.77;100.00
14232;BME280;7200;52.194;9.900;2023-07-31T10:12:40;99517.75;;;19.68;100.00
14232;BME280;7200;52.194;9.900;2023-07-31T10:15:08;99511.66;;;19.96;100.00
14232;BME280;7200;52.194;9.900;2023-07-31T10:17:34;99511.53;;;20.27;100.00
14232;BME280;7200;52.194;9.900;2023-07-31T10:20:01;99470.53;;;19.47;100.00
14232;BME280;7200;52.194;9.900;2023-07-31T10:22:30;99498.81;;;19.80;100.00
14232;BME280;7200;52.194;9.900;2023-07-31T10:24:58;99489.69;;;20.12;100.00
14232;BME280;7200;52.194;9.900;2023-07-31T10:27:24;99449.63;;;19.21;100.00
14232;BME280;7200;52.194;9.900;2023-07-31T10:29:50;99470.53;;;19.57;100.00
14232;BME280;7200;52.194;9.900;2023-07-31T10:32:17;99468.22;;;19.73;100.00
14232;BME280;7200;52.194;9.900;2023-07-31T10:34:42;99472.75;;;19.92;100.00
14232;BME280;7200;52.194;9.900;2023-07-31T10:39:57;99452.47;;;20.19;100.00
14232;BME280;7200;52.194;9.900;2023-07-31T10:42:34;99436.69;;;20.16;100.00
14232;BME280;7200;52.194;9.900;2023-07-31T10:45:03;99426.66;;;20.37;100.00
14232;BME280;7200;52.194;9.900;2023-07-31T10:47:28;99416.78;;;20.48;100.00
14232;BME280;7200;52.194;9.900;2023-07-31T10:50:14;99418.84;;;21.11;100.00
14232;BME280;7200;52.194;9.900;2023-07-31T10:52:44;99399.72;;;20.96;100.00
14232;BME280;7200;52.194;9.900;2023-07-31T10:55:24;99387.19;;;20.87;100.00
14232;BME280;7200;52.194;9.900;2023-07-31T10:57:50;99370.03;;;20.70;100.00
14232;BME280;7200;52.194;9.900;2023-07-31T11:00:28;99354.94;;;21.06;100.00
14232;BME280;7200;52.194;9.900;2023-07-31T11:03:01;99352.25;;;21.06;100.00
14232;BME280;7200;52.194;9.900;2023-07-31T11:13:27;99333.75;;;21.03;100.00
14232;BME280;7200;52.194;9.900;2023-07-31T11:15:53;99313.88;;;21.24;100.00
14232;BME280;7200;52.194;9.900;2023-07-31T11:18:21;99299.38;;;21.16;100.00
14232;BME280;7200;52.194;9.900;2023-07-31T11:20:46;99308.19;;;21.09;100.00
14232;BME280;7200;52.194;9.900;2023-07-31T11:23:12;99302.50;;;20.94;100.00
14232;BME280;7200;52.194;9.900;2023-07-31T11:25:39;99303.84;;;21.44;100.00
14232;BME280;7200;52.194;9.900;2023-07-31T11:28:09;99300.13;;;20.91;100.00
14232;BME280;7200;52.194;9.900;2023-07-31T11:30:36;99305.16;;;20.76;100.00
14232;BME280;7200;52.194;9.900;2023-07-31T11:33:02;99300.28;;;20.89;100.00
14232;BME280;7200;52.194;9.900;2023-07-31T11:35:30;99308.31;;;20.89;100.00
14232;BME280;7200;52.194;9.900;2023-07-31T11:37:56;99309.13;;;21.17;100.00
14232;BME280;7200;52.194;9.900;2023-07-31T11:40:21;99297.56;;;21.35;100.00
14232;BME280;7200;52.194;9.900;2023-07-31T11:42:46;99293.09;;;21.26;100.00
14232;BME280;7200;52.194;9.900;2023-07-31T11:45:11;99297.50;;;21.27;100.00
14232;BME280;7200;52.194;9.900;2023-07-31T11:47:37;99304.09;;;21.32;100.00
14232;BME280;7200;52.194;9.900;2023-07-31T11:50:04;99287.56;;;21.09;100.00
14232;BME280;7200;52.194;9.900;2023-07-31T11:52:32;99287.78;;;20.98;100.00
14232;BME280;7200;52.194;9.900;2023-07-31T11:54:59;99287.59;;;21.45;100.00
14232;BME280;7200;52.194;9.900;2023-07-31T11:57:25;99279.47;;;21.37;100.00
14232;BME280;7200;52.194;9.900;2023-07-31T11:59:51;99281.16;;;21.56;100.00
14232;BME280;7200;52.194;9.900;2023-07-31T12:02:17;99262.25;;;21.84;100.00
14232;BME280;7200;52.194;9.900;2023-07-31T12:04:43;99264.56;;;21.78;100.00
14232;BME280;7200;52.194;9.900;2023-07-31T12:07:08;99265.38;;;21.53;100.00
14232;BME280;7200;52.194;9.900;2023-07-31T12:09:34;99266.09;;;21.55;100.00
14232;BME280;7200;52.194;9.900;2023-07-31T12:11:59;99265.31;;;21.45;100.00
14232;BME280;7200;52.194;9.900;2023-07-31T12:14:29;99263.13;;;21.30;100.00
14232;BME280;7200;52.194;9.900;2023-07-31T12:16:59;99260.91;;;21.08;100.00
14232;BME280;7200;52.194;9.900;2023-07-31T12:19:25;99271.91;;;20.87;100.00
14232;BME280;7200;52.194;9.900;2023-07-31T12:21:55;99271.19;;;20.67;100.00
14232;BME280;7200;52.194;9.900;2023-07-31T12:24:21;99274.75;;;20.85;100.00
14232;BME280;7200;52.194;9.900;2023-07-31T12:26:46;99270.16;;;20.95;100.00
14232;BME280;7200;52.194;9.900;2023-07-31T12:29:12;99273.53;;;20.97;100.00
14232;BME280;7200;52.194;9.900;2023-07-31T12:31:41;99280.16;;;21.39;100.00
14232;BME280;7200;52.194;9.900;2023-07-31T12:34:15;99272.00;;;21.13;100.00
14232;BME280;7200;52.194;9.900;2023-07-31T12:36:42;99270.88;;;20.70;100.00
14232;BME280;7200;52.194;9.900;2023-07-31T12:39:07;99264.28;;;20.54;100.00
14232;BME280;7200;52.194;9.900;2023-07-31T12:41:33;99262.56;;;20.35;100.00
14232;BME280;7200;52.194;9.900;2023-07-31T12:43:59;99275.53;;;20.40;100.00
14232;BME280;7200;52.194;9.900;2023-07-31T12:46:24;99281.22;;;20.55;100.00
14232;BME280;7200;52.194;9.900;2023-07-31T12:48:50;99282.88;;;20.28;100.00
14232;BME280;7200;52.194;9.900;2023-07-31T12:51:15;99297.59;;;20.61;100.00
14232;BME280;7200;52.194;9.900;2023-07-31T12:53:40;99289.69;;;20.50;100.00
14232;BME280;7200;52.194;9.900;2023-07-31T12:56:06;99289.69;;;20.50;100.00
14232;BME280;7200;52.194;9.900;2023-07-31T12:58:31;99292.50;;;20.68;100.00
14232;BME280;7200;52.194;9.900;2023-07-31T13:00:57;99292.50;;;20.86;100.00
14232;BME280;7200;52.194;9.900;2023-07-31T13:03:22;99293.72;;;21.19;100.00
14232;BME280;7200;52.194;9.900;2023-07-31T13:05:47;99285.59;;;21.29;100.00
14232;BME280;7200;52.194;9.900;2023-07-31T13:08:13;99278.41;;;21.12;100.00
14232;BME280;7200;52.194;9.900;2023-07-31T13:10:40;99273.22;;;21.46;100.00
14232;BME280;7200;52.194;9.900;2023-07-31T13:13:06;99274.06;;;21.19;100.00
14232;BME280;7200;52.194;9.900;2023-07-31T13:15:31;99270.16;;;20.95;100.00
14232;BME280;7200;52.194;9.900;2023-07-31T13:17:56;99261.66;;;20.82;100.00